createdAt,value
2018-11-27T00:00:12.913Z,99.80
2018-11-27T00:02:41.195Z,99.90
2018-11-27T00:05:09.995Z,99.90
2018-11-27T00:07:38.355Z,99.90
2018-11-27T00:10:08.689Z,99.90
2018-11-27T00:12:37.028Z,99.90
2018-11-27T00:15:08.736Z,99.90
2018-11-27T00:17:37.060Z,99.90
2018-11-27T00:20:07.127Z,99.90
2018-11-27T00:22:35.455Z,99.90
2018-11-27T00:25:03.864Z,99.90
2018-11-27T00:27:32.197Z,99.90
2018-11-27T00:30:00.445Z,99.90
2018-11-27T00:32:28.771Z,99.90
2018-11-27T00:34:57.181Z,99.90
2018-11-27T00:37:25.487Z,99.90
2018-11-27T00:39:53.855Z,99.90
2018-11-27T00:42:22.159Z,99.80
2018-11-27T00:44:50.547Z,99.70
2018-11-27T00:47:19.076Z,99.70
2018-11-27T00:49:47.371Z,99.50
2018-11-27T00:52:15.659Z,99.50
2018-11-27T00:54:44.039Z,99.30
2018-11-27T00:57:12.304Z,99.20
2018-11-27T00:59:40.621Z,99.20
2018-11-27T01:02:08.861Z,99.20
2018-11-27T01:04:37.167Z,99.20
2018-11-27T01:07:05.457Z,99.20
2018-11-27T01:09:33.740Z,99.30
2018-11-27T01:12:01.969Z,99.40
2018-11-27T01:14:30.209Z,99.30
2018-11-27T01:16:58.415Z,99.40
2018-11-27T01:19:26.699Z,99.40
2018-11-27T01:21:54.970Z,99.40
2018-11-27T01:24:23.263Z,99.40
2018-11-27T01:26:51.472Z,99.50
2018-11-27T01:29:19.733Z,99.40
2018-11-27T01:31:48.066Z,99.40
2018-11-27T01:34:16.357Z,99.40
2018-11-27T01:36:44.655Z,99.70
2018-11-27T01:39:12.987Z,99.60
2018-11-27T01:41:41.261Z,99.80
2018-11-27T01:44:09.545Z,99.90
2018-11-27T01:46:37.909Z,99.90
2018-11-27T01:49:06.464Z,99.90
2018-11-27T01:51:34.834Z,99.90
2018-11-27T01:54:03.079Z,99.90
2018-11-27T01:56:31.475Z,99.90
2018-11-27T01:58:59.910Z,99.90
2018-11-27T02:01:28.252Z,99.90
2018-11-27T02:03:56.625Z,99.90
2018-11-27T02:06:25.020Z,99.90
2018-11-27T02:08:53.282Z,99.90
2018-11-27T02:11:21.564Z,99.90
2018-11-27T02:13:49.904Z,99.90
2018-11-27T02:16:18.183Z,99.90
2018-11-27T02:18:46.492Z,99.90
2018-11-27T02:21:14.822Z,99.90
2018-11-27T02:23:43.078Z,99.90
2018-11-27T02:26:11.374Z,99.90
2018-11-27T02:28:39.637Z,99.90
2018-11-27T02:31:07.909Z,99.90
2018-11-27T02:33:36.229Z,99.90
2018-11-27T02:36:04.665Z,99.90
2018-11-27T02:38:32.986Z,99.90
2018-11-27T02:41:01.348Z,99.90
2018-11-27T02:43:30.728Z,99.90
2018-11-27T02:45:58.952Z,99.90
2018-11-27T02:48:27.453Z,99.90
2018-11-27T02:50:55.712Z,99.90
2018-11-27T02:53:23.957Z,99.90
2018-11-27T02:55:52.320Z,99.90
2018-11-27T02:58:20.593Z,99.90
2018-11-27T03:00:48.833Z,99.90
2018-11-27T03:03:17.217Z,99.90
2018-11-27T03:05:45.503Z,99.90
2018-11-27T03:08:13.706Z,99.90
2018-11-27T03:10:42.005Z,99.90
2018-11-27T03:13:10.207Z,99.90
2018-11-27T03:15:38.483Z,99.90
2018-11-27T03:18:06.840Z,99.90
2018-11-27T03:20:35.217Z,99.90
2018-11-27T03:23:03.500Z,99.90
2018-11-27T03:25:31.782Z,99.90
2018-11-27T03:28:00.067Z,99.90
2018-11-27T03:30:28.528Z,99.90
2018-11-27T03:32:56.833Z,99.90
2018-11-27T03:35:25.759Z,99.90
2018-11-27T03:37:54.310Z,99.90
2018-11-27T03:40:25.723Z,99.90
2018-11-27T03:42:54.129Z,99.90
2018-11-27T03:45:23.115Z,99.90
2018-11-27T03:47:51.495Z,99.90
2018-11-27T03:50:28.738Z,99.90
2018-11-27T03:52:57.012Z,99.90
2018-11-27T03:55:25.467Z,99.90
2018-11-27T03:57:53.818Z,99.90
2018-11-27T04:00:23.829Z,99.90
2018-11-27T04:02:54.297Z,99.90
2018-11-27T04:05:23.458Z,99.90
2018-11-27T04:07:51.823Z,99.90
2018-11-27T04:10:21.470Z,99.90
2018-11-27T04:12:49.780Z,99.90
2018-11-27T04:15:18.582Z,99.90
2018-11-27T04:17:47.076Z,99.90
2018-11-27T04:20:15.430Z,99.90
2018-11-27T04:22:44.116Z,99.90
2018-11-27T04:25:13.545Z,99.90
2018-11-27T04:27:41.831Z,99.90
2018-11-27T04:30:11.805Z,99.90
2018-11-27T04:32:40.158Z,99.90
2018-11-27T04:35:09.466Z,99.90
2018-11-27T04:37:37.849Z,99.90
2018-11-27T04:40:08.363Z,99.90
2018-11-27T04:42:36.794Z,99.90
2018-11-27T04:45:07.808Z,99.90
2018-11-27T04:47:36.334Z,99.90
2018-11-27T04:50:06.203Z,99.90
2018-11-27T04:52:34.603Z,99.90
2018-11-27T04:55:03.017Z,99.90
2018-11-27T04:57:31.533Z,99.90
2018-11-27T04:59:59.922Z,99.90
2018-11-27T05:02:28.659Z,99.90
2018-11-27T05:04:57.019Z,99.90
2018-11-27T05:07:25.398Z,99.90
2018-11-27T05:09:53.843Z,99.90
2018-11-27T05:12:22.248Z,99.90
2018-11-27T05:14:50.744Z,99.90
2018-11-27T05:17:19.154Z,99.90
2018-11-27T05:19:47.777Z,99.90
2018-11-27T05:22:16.527Z,99.90
2018-11-27T05:24:45.061Z,99.90
2018-11-27T05:27:14.520Z,99.90
2018-11-27T05:29:42.901Z,99.90
2018-11-27T05:32:11.480Z,99.90
2018-11-27T05:34:40.581Z,99.90
2018-11-27T05:37:09.013Z,99.90
2018-11-27T05:39:37.557Z,99.90
2018-11-27T05:42:06.741Z,99.90
2018-11-27T05:44:35.743Z,99.90
2018-11-27T05:49:54.891Z,99.90
2018-11-27T05:52:24.985Z,99.90
2018-11-27T05:54:53.229Z,99.90
2018-11-27T05:57:22.563Z,99.90
2018-11-27T05:59:50.850Z,99.90
2018-11-27T06:02:19.120Z,99.90
2018-11-27T06:04:47.442Z,99.90
2018-11-27T06:07:15.854Z,99.90
2018-11-27T06:12:12.336Z,99.90
2018-11-27T06:14:40.575Z,99.90
2018-11-27T06:17:09.006Z,99.90
2018-11-27T06:19:37.252Z,99.90
2018-11-27T06:22:05.812Z,99.90
2018-11-27T06:24:34.091Z,99.90
2018-11-27T06:27:02.410Z,99.90
2018-11-27T06:29:30.711Z,99.90
2018-11-27T06:31:58.981Z,99.90
2018-11-27T06:34:27.325Z,99.90
2018-11-27T06:36:55.595Z,99.90
2018-11-27T06:39:23.841Z,99.90
2018-11-27T06:41:52.131Z,99.90
2018-11-27T06:44:20.327Z,99.90
2018-11-27T06:46:48.595Z,99.80
2018-11-27T06:49:16.826Z,99.70
2018-11-27T06:51:45.163Z,99.50
2018-11-27T06:54:13.474Z,99.30
2018-11-27T06:56:41.750Z,99.10
2018-11-27T06:59:10.196Z,99.00
2018-11-27T07:01:38.515Z,98.90
2018-11-27T07:04:06.781Z,98.70
2018-11-27T07:06:35.037Z,98.60
2018-11-27T07:09:03.386Z,98.40
2018-11-27T07:11:31.638Z,98.40
2018-11-27T07:13:59.895Z,98.50
2018-11-27T07:16:28.119Z,98.20
2018-11-27T07:18:56.380Z,97.90
2018-11-27T07:21:24.633Z,97.80
2018-11-27T07:23:52.861Z,97.70
2018-11-27T07:26:21.100Z,97.60
2018-11-27T07:28:49.414Z,97.30
2018-11-27T07:31:17.723Z,97.20
2018-11-27T07:33:46.165Z,96.80
2018-11-27T07:36:14.527Z,96.70
2018-11-27T07:38:42.723Z,97.00
2018-11-27T07:41:10.996Z,96.80
2018-11-27T07:43:39.257Z,96.70
2018-11-27T07:46:07.523Z,96.50
2018-11-27T07:48:36.415Z,96.30
2018-11-27T07:51:05.339Z,96.40
2018-11-27T07:53:33.589Z,96.50
2018-11-27T07:56:01.983Z,96.10
2018-11-27T07:58:30.316Z,96.00
2018-11-27T08:00:58.612Z,96.00
2018-11-27T08:03:26.907Z,95.70
2018-11-27T08:05:55.218Z,95.60
2018-11-27T08:08:23.595Z,95.40
2018-11-27T08:10:51.837Z,95.40
2018-11-27T08:13:20.145Z,95.40
2018-11-27T08:15:48.469Z,95.20
2018-11-27T08:18:16.733Z,95.40
2018-11-27T08:20:45.076Z,95.00
2018-11-27T08:23:13.458Z,94.80
2018-11-27T08:25:41.815Z,94.50
2018-11-27T08:28:10.145Z,94.20
2018-11-27T08:30:38.496Z,93.70
2018-11-27T08:33:07.121Z,93.60
2018-11-27T08:35:35.528Z,93.40
2018-11-27T08:38:03.899Z,93.20
2018-11-27T08:40:33.538Z,93.20
2018-11-27T08:43:08.517Z,93.00
2018-11-27T08:45:36.825Z,92.70
2018-11-27T08:48:05.130Z,92.60
2018-11-27T08:50:33.414Z,92.20
2018-11-27T08:53:03.995Z,92.20
2018-11-27T08:55:34.813Z,92.00
2018-11-27T08:58:03.515Z,91.90
2018-11-27T09:00:31.849Z,91.60
2018-11-27T09:03:00.196Z,91.40
2018-11-27T09:05:28.509Z,91.10
2018-11-27T09:07:56.903Z,90.70
2018-11-27T09:10:26.169Z,90.20
2018-11-27T09:12:54.366Z,90.00
2018-11-27T09:15:23.279Z,89.50
2018-11-27T09:18:00.388Z,89.50
2018-11-27T09:20:28.691Z,88.80
2018-11-27T09:22:57.017Z,89.30
2018-11-27T09:25:25.470Z,87.40
2018-11-27T09:27:53.886Z,87.10
2018-11-27T09:30:23.536Z,85.90
2018-11-27T09:32:52.278Z,85.70
2018-11-27T09:35:20.652Z,85.80
2018-11-27T09:37:48.924Z,85.20
2018-11-27T09:40:18.518Z,86.50
2018-11-27T09:42:46.968Z,86.50
2018-11-27T09:45:20.692Z,86.30
2018-11-27T09:47:50.408Z,85.60
2018-11-27T09:50:18.656Z,85.20
2018-11-27T09:52:47.067Z,85.00
2018-11-27T09:55:18.544Z,84.60
2018-11-27T09:57:46.878Z,83.70
2018-11-27T10:00:19.376Z,83.40
2018-11-27T10:02:47.728Z,82.90
2018-11-27T10:05:16.463Z,82.00
2018-11-27T10:07:44.769Z,81.90
2018-11-27T10:10:15.337Z,81.80
2018-11-27T10:12:43.893Z,82.00
2018-11-27T10:15:15.151Z,82.20
2018-11-27T10:17:43.756Z,82.00
2018-11-27T10:20:19.387Z,81.70
2018-11-27T10:22:47.663Z,82.40
2018-11-27T10:25:15.989Z,82.30
2018-11-27T10:27:44.787Z,81.90
2018-11-27T10:30:22.219Z,82.70
2018-11-27T10:32:51.575Z,82.40
2018-11-27T10:35:24.047Z,83.00
2018-11-27T10:37:52.330Z,83.20
2018-11-27T10:40:20.601Z,83.10
2018-11-27T10:42:48.913Z,83.50
2018-11-27T10:45:18.226Z,83.30
2018-11-27T10:47:47.619Z,82.40
2018-11-27T10:50:16.622Z,81.00
2018-11-27T10:52:46.219Z,80.90
2018-11-27T10:55:15.448Z,80.20
2018-11-27T10:57:44.143Z,80.20
2018-11-27T11:00:20.334Z,79.60
2018-11-27T11:02:54.113Z,80.10
2018-11-27T11:05:25.592Z,79.60
2018-11-27T11:07:53.872Z,79.70
2018-11-27T11:10:22.204Z,78.40
2018-11-27T11:12:50.883Z,78.50
2018-11-27T11:15:19.236Z,77.80
2018-11-27T11:17:47.493Z,77.90
2018-11-27T11:20:15.921Z,77.40
2018-11-27T11:22:44.205Z,77.30
2018-11-27T11:25:16.749Z,77.80
2018-11-27T11:27:46.372Z,76.60
2018-11-27T11:30:18.131Z,76.90
2018-11-27T11:32:46.618Z,76.00
2018-11-27T11:35:15.175Z,76.00
2018-11-27T11:37:43.618Z,76.10
2018-11-27T11:40:13.691Z,75.50
2018-11-27T11:42:42.121Z,75.20
2018-11-27T11:45:11.425Z,75.50
2018-11-27T11:47:40.040Z,75.30
2018-11-27T11:50:14.161Z,75.20
2018-11-27T11:52:45.507Z,75.20
2018-11-27T11:55:13.458Z,74.50
2018-11-27T11:57:42.608Z,73.40
2018-11-27T12:00:17.960Z,73.60
2018-11-27T12:02:46.184Z,75.10
2018-11-27T12:05:14.438Z,75.40
2018-11-27T12:07:42.652Z,74.30
2018-11-27T12:10:13.040Z,73.30
2018-11-27T12:12:41.816Z,73.30
2018-11-27T12:15:14.030Z,72.70
2018-11-27T12:17:42.905Z,73.50
2018-11-27T12:20:12.281Z,71.90
2018-11-27T12:22:41.360Z,72.10
2018-11-27T12:25:11.126Z,72.40
2018-11-27T12:27:39.350Z,72.10
2018-11-27T12:30:10.943Z,72.20
2018-11-27T12:32:39.397Z,71.50
2018-11-27T12:35:08.328Z,71.80
2018-11-27T12:37:36.542Z,72.40
2018-11-27T12:40:07.667Z,72.80
2018-11-27T12:42:35.860Z,73.80
2018-11-27T12:45:04.044Z,73.40
2018-11-27T12:47:33.263Z,74.20
2018-11-27T12:50:01.449Z,73.20
2018-11-27T12:52:29.640Z,75.70
2018-11-27T12:54:57.838Z,78.10
2018-11-27T12:57:26.104Z,79.50
2018-11-27T12:59:54.445Z,80.10
2018-11-27T13:02:22.644Z,80.80
2018-11-27T13:04:50.904Z,82.70
2018-11-27T13:07:19.166Z,83.40
2018-11-27T13:09:47.371Z,83.70
2018-11-27T13:12:15.663Z,83.60
2018-11-27T13:14:43.840Z,82.90
2018-11-27T13:17:12.113Z,82.80
2018-11-27T13:19:40.416Z,82.20
2018-11-27T13:22:08.727Z,82.20
2018-11-27T13:24:36.933Z,82.00
2018-11-27T13:27:05.149Z,82.30
2018-11-27T13:29:33.417Z,82.30
2018-11-27T13:32:01.649Z,82.60
2018-11-27T13:34:30.005Z,83.20
2018-11-27T13:36:58.269Z,82.70
2018-11-27T13:39:35.873Z,82.50
2018-11-27T13:42:04.125Z,82.70
2018-11-27T13:44:32.368Z,82.40
2018-11-27T13:47:00.872Z,82.20
2018-11-27T13:49:29.063Z,82.20
2018-11-27T13:51:57.309Z,81.70
2018-11-27T13:54:25.521Z,81.20
2018-11-27T13:56:53.759Z,81.00
2018-11-27T13:59:21.973Z,80.90
2018-11-27T14:01:50.287Z,80.40
2018-11-27T14:04:18.518Z,79.70
2018-11-27T14:06:46.722Z,79.40
2018-11-27T14:09:14.999Z,79.20
2018-11-27T14:11:43.247Z,79.20
2018-11-27T14:14:11.517Z,79.00
2018-11-27T14:16:39.782Z,79.10
2018-11-27T14:19:08.047Z,79.50
2018-11-27T14:21:36.351Z,79.40
2018-11-27T14:24:04.947Z,79.70
2018-11-27T14:26:33.103Z,80.10
2018-11-27T14:29:01.295Z,80.50
2018-11-27T14:31:29.539Z,80.70
2018-11-27T14:33:57.802Z,80.40
2018-11-27T14:36:26.010Z,80.50
2018-11-27T14:38:54.170Z,80.90
2018-11-27T14:41:22.555Z,80.80
2018-11-27T14:43:50.862Z,81.00
2018-11-27T14:46:19.022Z,80.40
2018-11-27T14:48:47.258Z,80.50
2018-11-27T14:51:15.495Z,80.80
2018-11-27T14:53:43.734Z,81.10
2018-11-27T14:56:12.085Z,81.10
2018-11-27T14:58:40.381Z,81.30
2018-11-27T15:01:08.562Z,81.40
2018-11-27T15:03:36.911Z,81.90
2018-11-27T15:06:05.353Z,82.00
2018-11-27T15:08:33.631Z,81.80
2018-11-27T15:11:02.248Z,82.20
2018-11-27T15:13:30.451Z,82.60
2018-11-27T15:15:58.657Z,82.70
2018-11-27T15:18:26.877Z,82.10
2018-11-27T15:20:55.211Z,82.10
2018-11-27T15:23:23.646Z,82.10
2018-11-27T15:25:52.009Z,82.70
2018-11-27T15:28:20.214Z,82.60
2018-11-27T15:30:48.532Z,82.90
2018-11-27T15:33:18.747Z,82.70
2018-11-27T15:35:45.174Z,83.00
2018-11-27T15:38:13.422Z,84.00
2018-11-27T15:40:41.650Z,83.50
2018-11-27T15:43:09.839Z,83.50
2018-11-27T15:45:38.081Z,84.50
2018-11-27T15:48:07.859Z,84.20
2018-11-27T15:50:36.133Z,84.10
2018-11-27T15:53:04.502Z,84.10
2018-11-27T15:55:34.231Z,84.00
2018-11-27T15:58:11.416Z,84.30
2018-11-27T16:00:40.402Z,84.50
2018-11-27T16:03:08.638Z,84.00
2018-11-27T16:05:37.433Z,83.90
2018-11-27T16:08:06.180Z,84.00
2018-11-27T16:10:34.372Z,84.60
2018-11-27T16:13:02.566Z,84.80
2018-11-27T16:15:30.924Z,84.40
2018-11-27T16:17:59.167Z,84.50
2018-11-27T16:20:27.396Z,84.80
2018-11-27T16:22:55.692Z,85.10
2018-11-27T16:25:25.754Z,85.30
2018-11-27T16:27:53.534Z,85.10
2018-11-27T16:30:27.017Z,85.00
2018-11-27T16:32:55.282Z,84.50
2018-11-27T16:35:23.932Z,84.60
2018-11-27T16:37:57.266Z,85.00
2018-11-27T16:40:27.806Z,84.30
2018-11-27T16:42:56.075Z,84.60
2018-11-27T16:45:24.637Z,84.80
2018-11-27T16:47:53.091Z,84.80
2018-11-27T16:50:21.476Z,84.80
2018-11-27T16:52:49.867Z,85.20
2018-11-27T16:55:19.288Z,85.20
2018-11-27T16:57:47.466Z,85.40
2018-11-27T17:00:18.665Z,85.00
2018-11-27T17:02:47.324Z,84.70
2018-11-27T17:05:15.603Z,85.00
2018-11-27T17:07:43.805Z,85.20
2018-11-27T17:10:13.088Z,85.40
2018-11-27T17:12:41.638Z,85.00
2018-11-27T17:15:12.097Z,85.30
2018-11-27T17:17:40.359Z,85.70
2018-11-27T17:20:27.882Z,86.00
2018-11-27T17:22:58.146Z,86.20
2018-11-27T17:25:26.341Z,86.40
2018-11-27T17:27:55.547Z,86.30
2018-11-27T17:30:28.884Z,86.40
2018-11-27T17:32:57.751Z,86.80
2018-11-27T17:35:26.653Z,87.80
2018-11-27T17:37:55.162Z,87.30
2018-11-27T17:40:23.389Z,87.50
2018-11-27T17:42:51.649Z,87.80
2018-11-27T17:45:19.877Z,88.30
2018-11-27T17:47:48.101Z,88.40
2018-11-27T17:50:17.358Z,88.60
2018-11-27T17:52:45.703Z,89.00
2018-11-27T17:55:14.266Z,89.20
2018-11-27T17:57:42.562Z,89.60
2018-11-27T18:00:14.357Z,90.00
2018-11-27T18:02:43.344Z,90.20
2018-11-27T18:05:11.572Z,90.40
2018-11-27T18:07:39.856Z,90.70
2018-11-27T18:10:09.714Z,90.90
2018-11-27T18:12:37.973Z,91.10
2018-11-27T18:15:09.613Z,91.30
2018-11-27T18:17:37.902Z,91.50
2018-11-27T18:20:07.482Z,91.70
2018-11-27T18:22:35.754Z,91.80
2018-11-27T18:25:10.438Z,91.90
2018-11-27T18:27:38.932Z,91.80
2018-11-27T18:30:12.878Z,91.80
2018-11-27T18:32:41.089Z,91.80
2018-11-27T18:35:11.731Z,91.60
2018-11-27T18:37:40.039Z,91.50
2018-11-27T18:40:11.274Z,91.50
2018-11-27T18:42:39.688Z,91.50
2018-11-27T18:45:12.072Z,91.40
2018-11-27T18:47:41.527Z,91.30
2018-11-27T18:50:11.312Z,91.40
2018-11-27T18:52:40.543Z,91.30
2018-11-27T18:55:10.368Z,91.30
2018-11-27T18:57:38.846Z,91.50
2018-11-27T19:00:16.757Z,91.30
2018-11-27T19:02:45.034Z,91.40
2018-11-27T19:05:13.355Z,91.50
2018-11-27T19:07:41.724Z,91.60
2018-11-27T19:10:13.876Z,91.60
2018-11-27T19:12:42.152Z,91.80
2018-11-27T19:15:13.417Z,91.50
2018-11-27T19:17:42.540Z,91.70
2018-11-27T19:20:12.282Z,92.00
2018-11-27T19:22:40.732Z,92.20
2018-11-27T19:25:10.888Z,91.80
2018-11-27T19:27:39.231Z,91.70
2018-11-27T19:30:16.210Z,91.70
2018-11-27T19:32:43.324Z,91.80
2018-11-27T19:35:14.133Z,91.70
2018-11-27T19:37:42.399Z,91.90
2018-11-27T19:40:12.424Z,92.00
2018-11-27T19:42:40.826Z,91.70
2018-11-27T19:45:15.313Z,91.70
2018-11-27T19:47:45.250Z,91.70
2018-11-27T19:50:14.110Z,91.90
2018-11-27T19:52:43.616Z,92.00
2018-11-27T19:55:13.239Z,92.00
2018-11-27T20:00:22.264Z,92.30
2018-11-27T20:02:51.089Z,92.40
2018-11-27T20:05:20.644Z,92.40
2018-11-27T20:07:48.982Z,92.40
2018-11-27T20:10:17.625Z,92.20
2018-11-27T20:12:46.220Z,92.00
2018-11-27T20:15:18.824Z,91.80
2018-11-27T20:17:48.127Z,91.60
2018-11-27T20:20:17.543Z,91.70
2018-11-27T20:22:45.804Z,91.80
2018-11-27T20:25:16.590Z,91.90
2018-11-27T20:27:45.205Z,91.70
2018-11-27T20:30:15.789Z,91.70
2018-11-27T20:32:47.988Z,91.70
2018-11-27T20:35:17.082Z,91.70
2018-11-27T20:37:45.917Z,91.70
2018-11-27T20:40:16.367Z,91.80
2018-11-27T20:42:45.037Z,91.90
2018-11-27T20:45:22.299Z,91.90
2018-11-27T20:47:52.603Z,91.80
2018-11-27T20:50:21.935Z,92.00
2018-11-27T20:52:50.327Z,92.00
2018-11-27T20:55:18.912Z,92.10
2018-11-27T20:57:49.094Z,92.00
2018-11-27T21:00:20.315Z,92.00
2018-11-27T21:02:48.753Z,92.00
2018-11-27T21:05:17.293Z,92.00
2018-11-27T21:07:45.642Z,91.90
2018-11-27T21:10:14.731Z,92.00
2018-11-27T21:12:43.668Z,92.00
2018-11-27T21:15:15.213Z,92.00
2018-11-27T21:17:43.583Z,91.90
2018-11-27T21:20:12.721Z,92.10
2018-11-27T21:22:41.111Z,91.90
2018-11-27T21:25:12.649Z,91.70
2018-11-27T21:27:41.097Z,91.60
2018-11-27T21:30:12.166Z,91.60
2018-11-27T21:32:40.787Z,91.60
2018-11-27T21:35:10.631Z,91.70
2018-11-27T21:37:39.019Z,91.70
2018-11-27T21:40:10.167Z,91.70
2018-11-27T21:42:38.784Z,91.90
2018-11-27T21:45:11.987Z,92.00
2018-11-27T21:47:40.306Z,92.00
2018-11-27T21:50:13.032Z,92.10
2018-11-27T21:52:41.316Z,92.00
2018-11-27T21:55:12.407Z,92.20
2018-11-27T21:57:40.821Z,91.90
2018-11-27T22:00:12.991Z,91.70
2018-11-27T22:02:41.293Z,91.70
2018-11-27T22:05:10.359Z,91.90
2018-11-27T22:07:38.619Z,91.80
2018-11-27T22:10:15.759Z,91.70
2018-11-27T22:12:45.191Z,91.60
2018-11-27T22:15:17.834Z,91.50
2018-11-27T22:17:46.104Z,91.40
2018-11-27T22:20:14.388Z,91.60
2018-11-27T22:22:42.650Z,91.10
2018-11-27T22:25:11.968Z,90.90
2018-11-27T22:27:40.160Z,91.10
2018-11-27T22:30:14.112Z,91.00
2018-11-27T22:32:46.429Z,91.00
2018-11-27T22:35:14.617Z,90.70
2018-11-27T22:37:42.888Z,90.30
2018-11-27T22:40:13.171Z,90.20
2018-11-27T22:42:41.465Z,90.20
2018-11-27T22:45:12.603Z,90.10
2018-11-27T22:47:40.844Z,90.40
2018-11-27T22:50:13.451Z,90.60
2018-11-27T22:52:41.707Z,90.10
2018-11-27T22:55:10.269Z,90.00
2018-11-27T22:57:38.464Z,90.00
2018-11-27T23:00:27.471Z,89.60
2018-11-27T23:02:55.894Z,89.60
2018-11-27T23:05:24.203Z,89.50
2018-11-27T23:07:52.465Z,89.90
2018-11-27T23:10:20.773Z,90.00
2018-11-27T23:12:48.941Z,89.90
2018-11-27T23:15:18.345Z,89.90
2018-11-27T23:17:46.621Z,89.50
2018-11-27T23:20:17.746Z,89.40
2018-11-27T23:22:46.023Z,89.10
2018-11-27T23:25:15.287Z,89.50
2018-11-27T23:27:43.494Z,89.50
2018-11-27T23:30:15.540Z,89.30
2018-11-27T23:32:43.853Z,89.70
2018-11-27T23:35:12.171Z,89.40
2018-11-27T23:37:40.441Z,88.70
2018-11-27T23:40:10.621Z,89.40
2018-11-27T23:42:39.155Z,87.60
2018-11-27T23:45:10.465Z,84.30
2018-11-27T23:47:38.743Z,84.50
2018-11-27T23:50:08.522Z,83.70
2018-11-27T23:52:36.731Z,83.40
2018-11-27T23:55:05.775Z,83.20
2018-11-27T23:57:34.189Z,82.50
